AFL081 ULMM-UUYH
Flight info
| Callsign | AFL081 |
|---|---|
| Flight time | N/A |
| Altitude | 35000 |
| Route | LOPRA2P LOPRA T822 SOTIS P35 UTUKA UTUKA3N |
| Aircraft | A321/M-SDE3FGHIRWY/LB1 |
Departure
| Time | N/A |
|---|---|
| Airport | Emperor Nicholas II Murmansk Airport (ULMM) |
Arrival
| Time | 2026-04-27 17:30 |
|---|---|
| Airport | Ukhta Airport (UUYH) |
| Time | Latitude | Longitude | Altitude | Speed | Heading |
|---|---|---|---|---|---|
| 2026-04-27 16:31 | 65.91299 | 39.66204 | 34830 ft | 474 kts | 143° |
| 2026-04-27 16:31 | 65.86277 | 39.76489 | 34827 ft | 474 kts | 142° |
| 2026-04-27 16:32 | 65.78734 | 39.92026 | 34814 ft | 472 kts | 143° |
| 2026-04-27 16:33 | 65.71240 | 40.07504 | 34817 ft | 472 kts | 137° |
| 2026-04-27 16:33 | 65.69153 | 40.13682 | 34818 ft | 476 kts | 126° |
| 2026-04-27 16:33 | 65.67560 | 40.20766 | 34806 ft | 481 kts | 115° |
| 2026-04-27 16:34 | 65.65604 | 40.36339 | 34803 ft | 484 kts | 109° |
| 2026-04-27 16:34 | 65.63738 | 40.52037 | 34785 ft | 484 kts | 109° |
| 2026-04-27 16:35 | 65.61832 | 40.67688 | 34803 ft | 484 kts | 109° |
| 2026-04-27 16:36 | 65.58960 | 40.91129 | 34796 ft | 484 kts | 110° |
| 2026-04-27 16:36 | 65.57042 | 41.06614 | 34794 ft | 484 kts | 110° |
| 2026-04-27 16:37 | 65.55098 | 41.22179 | 34786 ft | 484 kts | 110° |
| 2026-04-27 16:37 | 65.53137 | 41.37720 | 34770 ft | 483 kts | 110° |
| 2026-04-27 16:38 | 65.51169 | 41.53171 | 34772 ft | 483 kts | 110° |
| 2026-04-27 16:38 | 65.49182 | 41.68638 | 34776 ft | 483 kts | 110° |
| 2026-04-27 16:39 | 65.47184 | 41.84071 | 34773 ft | 483 kts | 111° |
| 2026-04-27 16:39 | 65.45157 | 41.99456 | 34772 ft | 482 kts | 111° |
| 2026-04-27 16:40 | 65.43100 | 42.14811 | 34740 ft | 482 kts | 111° |
| 2026-04-27 16:40 | 65.40988 | 42.30073 | 34764 ft | 481 kts | 112° |
| 2026-04-27 16:41 | 65.38863 | 42.45303 | 34767 ft | 481 kts | 112° |
| 2026-04-27 16:41 | 65.36737 | 42.60493 | 34757 ft | 480 kts | 112° |
| 2026-04-27 16:42 | 65.34600 | 42.75648 | 34742 ft | 479 kts | 112° |
| 2026-04-27 16:42 | 65.32491 | 42.90765 | 34731 ft | 479 kts | 112° |
| 2026-04-27 16:43 | 65.30389 | 43.05759 | 34729 ft | 478 kts | 112° |
| 2026-04-27 16:43 | 65.28256 | 43.20795 | 34720 ft | 477 kts | 112° |
| 2026-04-27 16:44 | 65.26097 | 43.35807 | 34720 ft | 477 kts | 112° |
| 2026-04-27 16:44 | 65.23924 | 43.50787 | 34711 ft | 477 kts | 112° |
| 2026-04-27 16:45 | 65.21739 | 43.65741 | 34713 ft | 477 kts | 112° |
| 2026-04-27 16:45 | 65.19545 | 43.80662 | 34708 ft | 477 kts | 112° |
| 2026-04-27 16:46 | 65.17329 | 43.95585 | 34702 ft | 479 kts | 113° |
| 2026-04-27 16:46 | 65.15088 | 44.10501 | 34705 ft | 479 kts | 113° |
| 2026-04-27 16:47 | 65.12844 | 44.25311 | 34692 ft | 479 kts | 113° |
| 2026-04-27 16:47 | 65.10554 | 44.40164 | 34692 ft | 479 kts | 114° |
| 2026-04-27 16:48 | 65.08238 | 44.54973 | 34684 ft | 479 kts | 114° |
| 2026-04-27 16:48 | 65.05912 | 44.69759 | 34692 ft | 479 kts | 114° |
| 2026-04-27 16:49 | 65.02395 | 44.91907 | 34678 ft | 479 kts | 114° |
| 2026-04-27 16:49 | 65.00034 | 45.06630 | 34677 ft | 478 kts | 114° |
| 2026-04-27 16:50 | 64.97664 | 45.21340 | 34672 ft | 478 kts | 114° |
| 2026-04-27 16:50 | 64.95280 | 45.35988 | 34673 ft | 478 kts | 115° |
| 2026-04-27 16:51 | 64.92900 | 45.50501 | 34650 ft | 475 kts | 114° |
| 2026-04-27 16:51 | 64.90512 | 45.64929 | 34665 ft | 470 kts | 115° |
| 2026-04-27 16:52 | 64.88361 | 45.79488 | 34655 ft | 472 kts | 109° |
| 2026-04-27 16:52 | 64.86505 | 45.94331 | 34655 ft | 474 kts | 110° |
| 2026-04-27 16:53 | 64.84619 | 46.09208 | 34654 ft | 474 kts | 110° |
| 2026-04-27 16:53 | 64.82714 | 46.24039 | 34646 ft | 474 kts | 110° |
| 2026-04-27 16:54 | 64.80785 | 46.38869 | 34633 ft | 474 kts | 110° |
| 2026-04-27 16:54 | 64.78840 | 46.53670 | 34629 ft | 474 kts | 110° |
| 2026-04-27 16:55 | 64.76912 | 46.68373 | 34638 ft | 474 kts | 110° |
| 2026-04-27 16:55 | 64.74966 | 46.83118 | 34642 ft | 474 kts | 110° |
| 2026-04-27 16:56 | 64.72995 | 46.97851 | 34634 ft | 474 kts | 111° |
| 2026-04-27 16:56 | 64.70999 | 47.12540 | 34637 ft | 473 kts | 111° |
| 2026-04-27 16:57 | 64.68910 | 47.27118 | 34613 ft | 472 kts | 112° |
| 2026-04-27 16:57 | 64.66769 | 47.41614 | 34634 ft | 471 kts | 112° |
| 2026-04-27 16:58 | 64.64632 | 47.56079 | 34614 ft | 472 kts | 112° |
| 2026-04-27 16:58 | 64.62505 | 47.70476 | 34611 ft | 473 kts | 112° |
| 2026-04-27 16:59 | 64.60349 | 47.84966 | 34603 ft | 473 kts | 112° |
| 2026-04-27 16:59 | 64.58173 | 47.99441 | 34602 ft | 474 kts | 112° |
| 2026-04-27 17:00 | 64.54879 | 48.21116 | 34615 ft | 473 kts | 113° |
| 2026-04-27 17:01 | 64.52677 | 48.35512 | 34622 ft | 473 kts | 113° |
| 2026-04-27 17:01 | 64.50457 | 48.49875 | 34624 ft | 472 kts | 113° |
| 2026-04-27 17:02 | 64.48214 | 48.64195 | 34619 ft | 472 kts | 113° |
| 2026-04-27 17:02 | 64.45961 | 48.78487 | 34618 ft | 472 kts | 113° |
| 2026-04-27 17:03 | 64.43689 | 48.92750 | 34606 ft | 471 kts | 114° |
| 2026-04-27 17:03 | 64.41383 | 49.06840 | 34613 ft | 471 kts | 114° |
| 2026-04-27 17:04 | 64.39036 | 49.20980 | 34599 ft | 471 kts | 114° |
| 2026-04-27 17:04 | 64.36711 | 49.35150 | 34597 ft | 472 kts | 114° |
| 2026-04-27 17:04 | 64.35579 | 49.42193 | 34598 ft | 461 kts | 114° |
| 2026-04-27 17:05 | 64.34480 | 49.49082 | 34614 ft | 455 kts | 114° |
| 2026-04-27 17:05 | 64.32290 | 49.62713 | 34614 ft | 452 kts | 114° |
| 2026-04-27 17:06 | 64.30062 | 49.76257 | 34619 ft | 451 kts | 114° |
| 2026-04-27 17:06 | 64.27816 | 49.89746 | 34617 ft | 451 kts | 114° |
| 2026-04-27 17:07 | 64.25565 | 50.03244 | 34616 ft | 451 kts | 115° |
| 2026-04-27 17:07 | 64.23332 | 50.16629 | 34634 ft | 451 kts | 115° |
| 2026-04-27 17:08 | 64.21062 | 50.30096 | 34337 ft | 451 kts | 115° |
| 2026-04-27 17:08 | 64.19921 | 50.36790 | 34099 ft | 450 kts | 115° |
| 2026-04-27 17:08 | 64.18776 | 50.43482 | 33864 ft | 450 kts | 115° |
| 2026-04-27 17:08 | 64.17630 | 50.50159 | 33611 ft | 450 kts | 115° |
| 2026-04-27 17:09 | 64.16479 | 50.56850 | 32914 ft | 453 kts | 115° |
| 2026-04-27 17:09 | 64.15316 | 50.63592 | 32056 ft | 456 kts | 115° |
| 2026-04-27 17:09 | 64.14146 | 50.70351 | 31194 ft | 459 kts | 116° |
| 2026-04-27 17:09 | 64.12967 | 50.77157 | 30373 ft | 461 kts | 116° |
| 2026-04-27 17:10 | 64.11772 | 50.84032 | 29305 ft | 468 kts | 116° |
| 2026-04-27 17:10 | 64.10560 | 50.90975 | 28304 ft | 471 kts | 116° |
| 2026-04-27 17:10 | 64.09752 | 50.95581 | 27636 ft | 472 kts | 116° |
| 2026-04-27 17:10 | 64.08108 | 51.04932 | 26215 ft | 476 kts | 116° |
| 2026-04-27 17:11 | 64.07290 | 51.09588 | 25520 ft | 478 kts | 116° |
| 2026-04-27 17:11 | 64.04834 | 51.23509 | 24177 ft | 468 kts | 116° |
| 2026-04-27 17:11 | 64.03616 | 51.30356 | 23450 ft | 464 kts | 116° |
| 2026-04-27 17:12 | 64.01199 | 51.43851 | 22081 ft | 452 kts | 116° |
| 2026-04-27 17:12 | 64.00014 | 51.50430 | 21449 ft | 445 kts | 116° |
| 2026-04-27 17:12 | 63.98842 | 51.56899 | 20844 ft | 438 kts | 116° |
| 2026-04-27 17:13 | 63.97684 | 51.63258 | 20240 ft | 432 kts | 116° |
| 2026-04-27 17:13 | 63.96542 | 51.69526 | 19659 ft | 426 kts | 116° |
| 2026-04-27 17:13 | 63.95414 | 51.75714 | 19098 ft | 420 kts | 116° |
| 2026-04-27 17:13 | 63.94301 | 51.81811 | 18553 ft | 414 kts | 116° |
| 2026-04-27 17:14 | 63.93203 | 51.87809 | 18032 ft | 408 kts | 116° |
| 2026-04-27 17:14 | 63.92114 | 51.93732 | 17483 ft | 402 kts | 117° |
| 2026-04-27 17:14 | 63.91043 | 51.99534 | 17007 ft | 395 kts | 117° |
| 2026-04-27 17:14 | 63.89989 | 52.05226 | 16559 ft | 388 kts | 117° |
| 2026-04-27 17:15 | 63.88949 | 52.10821 | 16107 ft | 381 kts | 117° |
| 2026-04-27 17:15 | 63.87934 | 52.16245 | 15691 ft | 375 kts | 117° |
| 2026-04-27 17:15 | 63.86910 | 52.21691 | 15245 ft | 373 kts | 117° |
| 2026-04-27 17:15 | 63.85890 | 52.27105 | 14815 ft | 371 kts | 117° |
| 2026-04-27 17:16 | 63.85051 | 52.32663 | 14361 ft | 373 kts | 108° |
| 2026-04-27 17:16 | 63.84608 | 52.38378 | 13916 ft | 375 kts | 101° |
| 2026-04-27 17:16 | 63.84268 | 52.44259 | 13438 ft | 374 kts | 101° |
| 2026-04-27 17:16 | 63.83926 | 52.50088 | 12926 ft | 372 kts | 101° |
| 2026-04-27 17:17 | 63.83580 | 52.55877 | 12421 ft | 369 kts | 101° |
| 2026-04-27 17:17 | 63.83233 | 52.61628 | 11999 ft | 364 kts | 101° |
| 2026-04-27 17:17 | 63.82897 | 52.67145 | 11877 ft | 350 kts | 101° |
| 2026-04-27 17:18 | 63.82277 | 52.77288 | 11590 ft | 299 kts | 102° |
| 2026-04-27 17:18 | 63.81998 | 52.81794 | 11206 ft | 286 kts | 102° |
| 2026-04-27 17:18 | 63.81716 | 52.86241 | 10911 ft | 282 kts | 103° |
| 2026-04-27 17:18 | 63.81436 | 52.90619 | 10607 ft | 279 kts | 103° |
| 2026-04-27 17:19 | 63.81159 | 52.94949 | 10337 ft | 277 kts | 103° |
| 2026-04-27 17:19 | 63.80883 | 52.99262 | 10177 ft | 277 kts | 103° |
| 2026-04-27 17:19 | 63.80608 | 53.03531 | 10063 ft | 277 kts | 103° |
| 2026-04-27 17:19 | 63.80327 | 53.07834 | 9940 ft | 276 kts | 103° |
| 2026-04-27 17:20 | 63.80048 | 53.12132 | 9822 ft | 276 kts | 103° |
| 2026-04-27 17:20 | 63.79767 | 53.16434 | 9697 ft | 276 kts | 103° |
| 2026-04-27 17:20 | 63.79485 | 53.20779 | 9218 ft | 285 kts | 103° |
| 2026-04-27 17:20 | 63.79189 | 53.25265 | 8715 ft | 290 kts | 103° |
| 2026-04-27 17:21 | 63.78887 | 53.29810 | 8238 ft | 293 kts | 103° |
| 2026-04-27 17:21 | 63.78588 | 53.34335 | 7924 ft | 289 kts | 103° |
| 2026-04-27 17:21 | 63.78290 | 53.38825 | 7426 ft | 286 kts | 104° |
| 2026-04-27 17:21 | 63.77994 | 53.43259 | 6913 ft | 283 kts | 104° |
| 2026-04-27 17:22 | 63.77706 | 53.47564 | 6623 ft | 279 kts | 104° |
| 2026-04-27 17:22 | 63.77418 | 53.51870 | 5982 ft | 275 kts | 104° |
| 2026-04-27 17:22 | 63.77133 | 53.56082 | 5450 ft | 266 kts | 104° |
| 2026-04-27 17:22 | 63.76859 | 53.60131 | 5015 ft | 254 kts | 105° |
| 2026-04-27 17:23 | 63.76595 | 53.63987 | 4633 ft | 240 kts | 106° |
| 2026-04-27 17:23 | 63.76356 | 53.67552 | 4483 ft | 216 kts | 107° |
| 2026-04-27 17:23 | 63.76083 | 53.70663 | 4265 ft | 193 kts | 114° |
| 2026-04-27 17:23 | 63.75745 | 53.73493 | 4128 ft | 178 kts | 115° |
| 2026-04-27 17:24 | 63.75434 | 53.76075 | 4076 ft | 164 kts | 116° |
| 2026-04-27 17:24 | 63.75131 | 53.78529 | 4035 ft | 161 kts | 116° |
| 2026-04-27 17:24 | 63.74828 | 53.80952 | 3979 ft | 160 kts | 116° |
| 2026-04-27 17:24 | 63.74529 | 53.83373 | 3913 ft | 160 kts | 116° |
| 2026-04-27 17:25 | 63.74216 | 53.85774 | 3818 ft | 157 kts | 122° |
| 2026-04-27 17:25 | 63.73680 | 53.87706 | 3600 ft | 138 kts | 142° |
| 2026-04-27 17:25 | 63.72943 | 53.88957 | 3465 ft | 130 kts | 159° |
| 2026-04-27 17:25 | 63.72087 | 53.89558 | 3341 ft | 130 kts | 174° |
| 2026-04-27 17:26 | 63.71178 | 53.89480 | 3200 ft | 135 kts | 191° |
| 2026-04-27 17:26 | 63.70227 | 53.88897 | 3023 ft | 145 kts | 193° |
| 2026-04-27 17:26 | 63.69250 | 53.88283 | 2834 ft | 147 kts | 193° |
| 2026-04-27 17:26 | 63.68239 | 53.87651 | 2631 ft | 155 kts | 193° |
| 2026-04-27 17:27 | 63.67195 | 53.86997 | 2417 ft | 157 kts | 193° |
| 2026-04-27 17:27 | 63.66155 | 53.86347 | 2206 ft | 157 kts | 193° |
| 2026-04-27 17:27 | 63.65098 | 53.85687 | 1986 ft | 158 kts | 193° |
| 2026-04-27 17:27 | 63.64108 | 53.85066 | 1764 ft | 140 kts | 191° |
| 2026-04-27 17:28 | 63.63197 | 53.84498 | 1589 ft | 133 kts | 190° |
| 2026-04-27 17:28 | 63.62317 | 53.83951 | 1406 ft | 130 kts | 190° |
| 2026-04-27 17:28 | 63.60523 | 53.82826 | 1059 ft | 137 kts | 192° |
| 2026-04-27 17:29 | 63.59590 | 53.82248 | 836 ft | 143 kts | 192° |
| 2026-04-27 17:29 | 63.58623 | 53.81634 | 659 ft | 146 kts | 193° |
| 2026-04-27 17:29 | 63.57645 | 53.81039 | 458 ft | 144 kts | 192° |
| 2026-04-27 17:29 | 63.56779 | 53.80512 | 460 ft | 105 kts | 195° |
| 2026-04-27 17:30 | 63.56261 | 53.80192 | 468 ft | 48 kts | 195° |
| 2026-04-27 17:30 | 63.55885 | 53.80015 | 475 ft | 16 kts | 157° |
| 2026-04-27 17:30 | 63.55788 | 53.80155 | 473 ft | 16 kts | 146° |
| 2026-04-27 17:31 | 63.55729 | 53.80259 | 478 ft | 4 kts | 104° |
| 2026-04-27 17:31 | 63.55733 | 53.80368 | 469 ft | 12 kts | 72° |
| 2026-04-27 17:31 | 63.55746 | 53.80564 | 471 ft | 12 kts | 110° |
| 2026-04-27 17:31 | 63.55702 | 53.80575 | 478 ft | 4 kts | 248° |
| 2026-04-27 17:32 | 63.55699 | 53.80523 | 478 ft | 3 kts | 257° |
| 2026-04-27 17:32 | 63.55696 | 53.80496 | 478 ft | 0 kts | 256° |